createdAt,value
2022-12-08T00:00:07.935Z,3.46
2022-12-08T00:03:34.479Z,3.50
2022-12-08T00:06:57.690Z,3.45
2022-12-08T00:10:00.048Z,3.47
2022-12-08T00:13:03.082Z,3.49
2022-12-08T00:16:05.863Z,3.47
2022-12-08T00:19:11.322Z,3.44
2022-12-08T00:22:14.821Z,3.45
2022-12-08T00:25:17.892Z,3.52
2022-12-08T00:28:20.384Z,3.51
2022-12-08T00:31:23.406Z,3.55
2022-12-08T00:34:26.340Z,3.56
2022-12-08T00:37:29.241Z,3.41
2022-12-08T00:40:31.798Z,3.32
2022-12-08T00:43:34.908Z,3.33
2022-12-08T00:46:37.663Z,3.36
2022-12-08T00:49:41.191Z,3.37
2022-12-08T00:52:43.743Z,3.34
2022-12-08T00:55:46.782Z,3.38
2022-12-08T00:58:49.470Z,3.29
2022-12-08T01:01:52.482Z,3.24
2022-12-08T01:04:54.943Z,3.21
2022-12-08T01:07:57.990Z,3.23
2022-12-08T01:11:09.340Z,3.24
2022-12-08T01:14:13.237Z,3.19
2022-12-08T01:17:15.747Z,3.17
2022-12-08T01:20:18.804Z,3.18
2022-12-08T01:23:22.639Z,3.24
2022-12-08T01:26:25.825Z,3.15
2022-12-08T01:29:28.374Z,3.12
2022-12-08T01:32:31.391Z,3.14
2022-12-08T01:35:34.459Z,3.14
2022-12-08T01:38:37.604Z,3.14
2022-12-08T01:41:40.226Z,3.04
2022-12-08T01:44:43.165Z,2.99
2022-12-08T01:47:50.130Z,2.94
2022-12-08T01:50:55.695Z,2.91
2022-12-08T01:53:58.252Z,2.85
2022-12-08T01:57:06.459Z,2.84
2022-12-08T02:00:12.834Z,2.73
2022-12-08T02:03:22.481Z,2.70
2022-12-08T02:06:27.386Z,2.59
2022-12-08T02:09:30.448Z,2.62
2022-12-08T02:12:33.060Z,2.59
2022-12-08T02:15:46.075Z,2.57
2022-12-08T02:19:30.226Z,2.51
2022-12-08T02:22:57.281Z,2.54
2022-12-08T02:26:33.846Z,2.49
2022-12-08T02:29:52.787Z,2.47
2022-12-08T02:33:13.950Z,2.45
2022-12-08T02:36:38.920Z,2.45
2022-12-08T02:39:58.200Z,2.53
2022-12-08T02:43:07.417Z,2.52
2022-12-08T02:46:21.199Z,2.48
2022-12-08T02:49:32.836Z,2.51
2022-12-08T02:52:40.696Z,2.52
2022-12-08T02:56:01.680Z,2.50
2022-12-08T02:59:10.006Z,2.45
2022-12-08T03:02:38.257Z,2.49
2022-12-08T03:05:53.243Z,2.54
2022-12-08T03:09:20.469Z,2.52
2022-12-08T03:12:31.603Z,2.51
2022-12-08T03:15:37.237Z,2.53
2022-12-08T03:18:44.335Z,2.61
2022-12-08T03:21:52.462Z,2.67
2022-12-08T03:24:56.556Z,2.68
2022-12-08T03:28:00.246Z,2.71
2022-12-08T03:31:07.546Z,2.74
2022-12-08T03:34:13.080Z,2.76
2022-12-08T03:37:16.291Z,2.81
2022-12-08T03:40:20.633Z,2.89
2022-12-08T03:43:23.067Z,2.91
2022-12-08T03:49:29.765Z,3.18
2022-12-08T03:52:32.795Z,3.00
2022-12-08T03:55:35.270Z,3.03
2022-12-08T03:58:38.238Z,3.13
2022-12-08T04:01:40.706Z,3.02
2022-12-08T04:04:44.159Z,3.07
2022-12-08T04:07:46.693Z,3.07
2022-12-08T04:10:49.776Z,3.28
2022-12-08T04:13:52.551Z,3.32
2022-12-08T04:16:55.612Z,3.29
2022-12-08T04:19:58.017Z,3.24
2022-12-08T04:23:01.027Z,3.19
2022-12-08T04:26:04.610Z,3.26
2022-12-08T04:29:07.645Z,3.36
2022-12-08T04:32:10.206Z,3.28
2022-12-08T04:35:13.271Z,3.36
2022-12-08T04:38:16.638Z,3.25
2022-12-08T04:41:19.834Z,3.31
2022-12-08T04:44:22.291Z,3.24
2022-12-08T04:47:25.547Z,3.34
2022-12-08T04:50:28.638Z,3.29
2022-12-08T04:53:31.905Z,3.24
2022-12-08T04:56:34.617Z,3.20
2022-12-08T04:59:37.710Z,3.29
2022-12-08T05:02:40.643Z,3.30
2022-12-08T05:05:43.644Z,3.49
2022-12-08T05:08:46.061Z,3.48
2022-12-08T05:11:49.456Z,3.55
2022-12-08T05:14:52.028Z,3.42
2022-12-08T05:17:55.188Z,3.37
2022-12-08T05:20:57.673Z,3.23
2022-12-08T05:24:00.666Z,3.11
2022-12-08T05:27:03.270Z,2.99
2022-12-08T05:30:07.293Z,2.89
2022-12-08T05:33:09.886Z,2.85
2022-12-08T05:36:14.811Z,2.88
2022-12-08T05:39:17.435Z,2.82
2022-12-08T05:42:24.539Z,2.85
2022-12-08T05:45:27.534Z,2.87
2022-12-08T05:48:30.734Z,2.94
2022-12-08T05:51:33.398Z,2.89
2022-12-08T05:54:39.706Z,2.85
2022-12-08T05:57:42.196Z,2.82
2022-12-08T06:00:46.640Z,2.82
2022-12-08T06:03:49.774Z,2.90
2022-12-08T06:06:52.675Z,2.89
2022-12-08T06:09:55.379Z,2.93
2022-12-08T06:12:58.133Z,3.01
2022-12-08T06:16:07.331Z,3.03
2022-12-08T06:19:10.199Z,3.04
2022-12-08T06:22:12.915Z,3.05
2022-12-08T06:25:15.718Z,3.20
2022-12-08T06:28:18.898Z,3.20
2022-12-08T06:31:24.169Z,3.28
2022-12-08T06:34:27.116Z,3.25
2022-12-08T06:37:29.840Z,3.24
2022-12-08T06:40:32.765Z,3.31
2022-12-08T06:43:35.711Z,3.33
2022-12-08T06:46:38.434Z,3.37
2022-12-08T06:49:41.138Z,3.39
2022-12-08T06:52:54.200Z,3.39
2022-12-08T06:56:01.339Z,3.29
2022-12-08T06:59:04.407Z,3.36
2022-12-08T07:02:07.480Z,3.45
2022-12-08T07:05:10.285Z,3.74
2022-12-08T07:08:13.132Z,3.75
2022-12-08T07:11:21.109Z,3.86
2022-12-08T07:14:25.137Z,3.73
2022-12-08T07:17:27.831Z,3.77
2022-12-08T07:20:30.662Z,3.93
2022-12-08T07:23:33.797Z,3.88
2022-12-08T07:26:36.521Z,3.98
2022-12-08T07:29:39.239Z,3.98
2022-12-08T07:32:41.999Z,3.95
2022-12-08T07:35:49.098Z,4.05
2022-12-08T07:38:56.779Z,4.03
2022-12-08T07:41:59.782Z,4.06
2022-12-08T07:45:02.875Z,4.07
2022-12-08T07:48:06.116Z,4.19
2022-12-08T07:51:11.615Z,4.22
2022-12-08T07:54:16.873Z,4.35
2022-12-08T07:57:19.705Z,4.45
2022-12-08T08:00:22.628Z,4.48
2022-12-08T08:03:25.743Z,4.62
2022-12-08T08:06:28.776Z,4.78
2022-12-08T08:09:31.918Z,5.02
2022-12-08T08:12:34.589Z,5.20
2022-12-08T08:15:37.809Z,5.56
2022-12-08T08:18:40.797Z,6.01
2022-12-08T08:21:45.921Z,6.27
2022-12-08T08:24:48.916Z,6.36
2022-12-08T08:27:52.091Z,6.40
2022-12-08T08:30:55.081Z,6.34
2022-12-08T08:34:00.444Z,6.34
2022-12-08T08:37:03.089Z,6.29
2022-12-08T08:40:06.749Z,6.33
2022-12-08T08:43:09.393Z,6.41
2022-12-08T08:46:12.655Z,6.38
2022-12-08T08:49:15.150Z,6.48
2022-12-08T08:52:18.460Z,6.61
2022-12-08T08:55:21.078Z,6.78
2022-12-08T08:58:24.183Z,6.89
2022-12-08T09:01:28.175Z,6.80
2022-12-08T09:04:34.493Z,6.78
2022-12-08T09:07:37.152Z,6.55
2022-12-08T09:10:40.233Z,6.55
2022-12-08T09:13:42.873Z,6.32
2022-12-08T09:16:46.036Z,6.25
2022-12-08T09:19:48.512Z,6.07
2022-12-08T09:22:51.719Z,6.14
2022-12-08T09:25:54.236Z,5.91
2022-12-08T09:28:57.763Z,5.98
2022-12-08T09:32:00.340Z,6.07
2022-12-08T09:35:03.729Z,5.99
2022-12-08T09:38:06.191Z,5.89
2022-12-08T09:41:48.392Z,5.90
2022-12-08T09:44:51.754Z,5.89
2022-12-08T09:48:01.046Z,5.84
2022-12-08T09:51:05.001Z,5.73
2022-12-08T09:54:22.486Z,5.66
2022-12-08T09:57:25.855Z,5.71
2022-12-08T10:00:29.193Z,5.72
2022-12-08T10:03:31.921Z,5.71
2022-12-08T10:06:50.950Z,5.78
2022-12-08T10:10:19.955Z,5.87
2022-12-08T10:13:42.407Z,5.98
2022-12-08T10:16:49.993Z,6.07
2022-12-08T10:20:04.252Z,6.06
2022-12-08T10:23:13.844Z,6.04
2022-12-08T10:26:19.898Z,6.07
2022-12-08T10:29:22.815Z,6.12
2022-12-08T10:32:34.181Z,6.07
2022-12-08T10:35:43.094Z,6.04
2022-12-08T10:38:45.896Z,6.12
2022-12-08T10:41:51.170Z,6.24
2022-12-08T10:44:58.365Z,6.29
2022-12-08T10:48:04.612Z,6.33
2022-12-08T10:51:35.668Z,6.32
2022-12-08T10:54:42.966Z,6.33
2022-12-08T10:57:46.462Z,6.34
2022-12-08T11:00:53.572Z,6.41
2022-12-08T11:03:59.368Z,6.35
2022-12-08T11:07:04.771Z,6.32
2022-12-08T11:10:17.888Z,6.35
2022-12-08T11:13:27.590Z,6.39
2022-12-08T11:16:31.057Z,6.33
2022-12-08T11:19:39.134Z,6.19
2022-12-08T11:22:50.672Z,6.20
2022-12-08T11:25:56.220Z,6.09
2022-12-08T11:28:59.222Z,6.06
2022-12-08T11:32:17.853Z,5.97
2022-12-08T11:35:27.070Z,5.94
2022-12-08T11:38:33.160Z,5.87
2022-12-08T11:41:43.069Z,5.82
2022-12-08T11:44:53.556Z,5.80
2022-12-08T11:48:02.118Z,5.78
2022-12-08T11:51:31.164Z,5.71
2022-12-08T11:54:46.264Z,5.71
2022-12-08T11:57:52.031Z,5.73
2022-12-08T12:00:54.890Z,5.75
2022-12-08T12:04:23.205Z,5.71
2022-12-08T12:08:11.197Z,5.82
2022-12-08T12:11:45.721Z,5.77
2022-12-08T12:15:04.107Z,5.75
2022-12-08T12:18:16.270Z,5.65
2022-12-08T12:21:26.383Z,5.62
2022-12-08T12:24:36.245Z,5.69
2022-12-08T12:27:40.579Z,5.72
2022-12-08T12:31:18.459Z,5.69
2022-12-08T12:34:25.965Z,5.62
2022-12-08T12:37:41.749Z,5.62
2022-12-08T12:40:44.684Z,5.66
2022-12-08T12:44:09.333Z,5.68
2022-12-08T12:47:15.030Z,5.70
2022-12-08T12:50:39.058Z,5.63
2022-12-08T12:53:41.719Z,5.58
2022-12-08T12:57:16.002Z,5.53
2022-12-08T13:00:24.279Z,5.58
2022-12-08T13:03:28.093Z,5.57
2022-12-08T13:06:48.301Z,5.59
2022-12-08T13:09:58.830Z,5.64
2022-12-08T13:13:21.970Z,5.60
2022-12-08T13:16:27.751Z,5.72
2022-12-08T13:19:33.523Z,5.77
2022-12-08T13:23:01.778Z,5.75
2022-12-08T13:26:20.708Z,5.92
2022-12-08T13:29:26.961Z,5.80
2022-12-08T13:32:39.035Z,5.84
2022-12-08T13:36:21.280Z,5.89
2022-12-08T13:39:39.350Z,5.97
2022-12-08T13:43:01.877Z,5.78
2022-12-08T13:47:02.834Z,5.65
2022-12-08T13:57:08.533Z,5.83
2022-12-08T14:00:20.683Z,5.74
2022-12-08T14:03:23.743Z,5.74
2022-12-08T14:06:36.137Z,5.81
2022-12-08T14:09:41.182Z,5.75
2022-12-08T14:12:47.911Z,5.74
2022-12-08T14:15:50.779Z,5.60
2022-12-08T14:18:53.628Z,5.86
2022-12-08T14:22:17.108Z,5.83
2022-12-08T14:25:21.651Z,5.61
2022-12-08T14:28:24.951Z,5.54
2022-12-08T14:31:29.299Z,5.41
2022-12-08T14:34:40.420Z,5.47
2022-12-08T14:37:46.550Z,5.36
2022-12-08T14:41:01.055Z,5.33
2022-12-08T14:44:22.913Z,5.41
2022-12-08T14:47:31.139Z,5.43
2022-12-08T14:50:37.027Z,5.37
2022-12-08T14:53:43.312Z,5.31
2022-12-08T14:56:52.312Z,5.26
2022-12-08T14:59:55.269Z,5.15
2022-12-08T15:02:58.101Z,5.16
2022-12-08T15:06:06.303Z,5.10
2022-12-08T15:09:18.503Z,5.18
2022-12-08T15:12:27.386Z,5.24
2022-12-08T15:15:32.756Z,5.29
2022-12-08T15:18:38.094Z,5.37
2022-12-08T15:21:41.607Z,5.31
2022-12-08T15:24:44.267Z,5.26
2022-12-08T15:27:50.406Z,5.26
2022-12-08T15:30:54.292Z,5.35
2022-12-08T15:33:57.075Z,5.28
2022-12-08T15:36:59.838Z,5.34
2022-12-08T15:40:03.136Z,5.27
2022-12-08T15:43:06.235Z,5.33
2022-12-08T15:46:09.154Z,5.31
2022-12-08T15:49:23.601Z,5.28
2022-12-08T15:52:26.317Z,5.26
2022-12-08T15:55:31.124Z,5.38
2022-12-08T15:58:54.739Z,5.27
2022-12-08T16:01:58.436Z,5.23
2022-12-08T16:08:45.831Z,5.16
2022-12-08T16:12:08.230Z,5.16
2022-12-08T16:18:40.089Z,4.93
2022-12-08T16:25:22.455Z,4.90
2022-12-08T16:28:53.025Z,4.82
2022-12-08T16:31:50.270Z,4.84
2022-12-08T16:34:53.178Z,4.81
2022-12-08T16:37:56.245Z,4.80
2022-12-08T16:41:17.519Z,4.96
2022-12-08T16:44:20.512Z,4.84
2022-12-08T16:47:22.941Z,4.98
2022-12-08T16:50:32.191Z,5.03
2022-12-08T16:53:34.637Z,5.00
2022-12-08T16:56:37.856Z,4.82
2022-12-08T16:59:40.471Z,4.97
2022-12-08T17:02:44.851Z,4.97
2022-12-08T17:05:47.366Z,4.89
2022-12-08T17:08:50.383Z,4.95
2022-12-08T17:11:52.843Z,4.93
2022-12-08T17:14:55.898Z,4.96
2022-12-08T17:17:58.420Z,4.85
2022-12-08T17:21:01.471Z,5.01
2022-12-08T17:24:04.676Z,5.01
2022-12-08T17:27:07.645Z,5.01
2022-12-08T17:30:12.536Z,5.03
2022-12-08T17:33:15.780Z,4.98
2022-12-08T17:36:18.290Z,5.06
2022-12-08T17:39:21.407Z,5.06
2022-12-08T17:42:26.077Z,4.89
2022-12-08T17:45:29.194Z,4.81
2022-12-08T17:48:31.821Z,4.88
2022-12-08T17:51:34.860Z,4.94
2022-12-08T17:54:38.211Z,4.99
2022-12-08T17:57:41.523Z,5.04
2022-12-08T18:00:44.051Z,4.98
2022-12-08T18:03:47.223Z,4.95
2022-12-08T18:06:49.720Z,5.01
2022-12-08T18:09:52.803Z,4.98
2022-12-08T18:12:55.599Z,4.96
2022-12-08T18:15:58.718Z,4.95
2022-12-08T18:19:01.217Z,4.91
2022-12-08T18:22:04.380Z,4.86
2022-12-08T18:25:07.393Z,4.76
2022-12-08T18:28:10.573Z,4.80
2022-12-08T18:31:17.692Z,4.90
2022-12-08T18:34:20.870Z,4.88
2022-12-08T18:37:23.551Z,4.92
2022-12-08T18:40:27.968Z,4.84
2022-12-08T18:43:30.419Z,4.81
2022-12-08T18:46:33.484Z,4.89
2022-12-08T18:49:36.055Z,4.92
2022-12-08T18:52:39.162Z,4.87
2022-12-08T18:55:41.660Z,5.02
2022-12-08T18:58:44.671Z,4.93
2022-12-08T19:01:47.223Z,4.96
2022-12-08T19:04:50.347Z,5.06
2022-12-08T19:07:52.863Z,4.98
2022-12-08T19:10:55.964Z,5.00
2022-12-08T19:13:58.463Z,5.01
2022-12-08T19:17:01.882Z,5.06
2022-12-08T19:20:05.909Z,4.93
2022-12-08T19:23:09.187Z,4.89
2022-12-08T19:26:12.249Z,4.82
2022-12-08T19:29:15.533Z,4.76
2022-12-08T19:32:18.362Z,4.77
2022-12-08T19:35:21.770Z,4.75
2022-12-08T19:38:24.386Z,4.72
2022-12-08T19:41:46.792Z,4.71
2022-12-08T19:44:55.634Z,4.72
2022-12-08T19:47:58.733Z,4.75
2022-12-08T19:51:01.234Z,4.77
2022-12-08T19:54:04.463Z,4.80
2022-12-08T19:57:07.050Z,4.78
2022-12-08T20:00:12.456Z,4.74
2022-12-08T20:03:17.035Z,4.70
2022-12-08T20:06:27.531Z,4.63
2022-12-08T20:09:30.377Z,4.61
2022-12-08T20:12:33.166Z,4.55
2022-12-08T20:15:35.963Z,4.56
2022-12-08T20:18:39.978Z,4.50
2022-12-08T20:21:42.831Z,4.50
2022-12-08T20:24:49.161Z,4.48
2022-12-08T20:27:57.468Z,4.49
2022-12-08T20:31:00.800Z,4.47
2022-12-08T20:34:03.823Z,4.48
2022-12-08T20:37:06.604Z,4.53
2022-12-08T20:40:10.216Z,4.51
2022-12-08T20:43:12.961Z,4.62
2022-12-08T20:46:17.464Z,4.50
2022-12-08T20:49:20.662Z,4.54
2022-12-08T20:52:23.852Z,4.57
2022-12-08T20:55:26.950Z,4.47
2022-12-08T20:58:29.807Z,4.42
2022-12-08T21:01:32.954Z,4.38
2022-12-08T21:04:36.146Z,4.34
2022-12-08T21:07:39.024Z,4.32
2022-12-08T21:10:43.938Z,4.32
2022-12-08T21:13:47.287Z,4.32
2022-12-08T21:16:50.976Z,4.32
2022-12-08T21:19:54.042Z,4.32
2022-12-08T21:22:56.995Z,4.31
2022-12-08T21:25:59.794Z,4.32
2022-12-08T21:29:02.624Z,4.28
2022-12-08T21:32:06.018Z,4.26
2022-12-08T21:35:09.075Z,4.26
2022-12-08T21:38:12.065Z,4.27
2022-12-08T21:41:38.019Z,4.29
2022-12-08T21:44:41.108Z,4.32
2022-12-08T21:47:45.716Z,4.32
2022-12-08T21:50:48.750Z,4.37
2022-12-08T21:53:51.704Z,4.51
2022-12-08T21:56:54.429Z,4.47
2022-12-08T21:59:57.651Z,4.41
2022-12-08T22:03:00.650Z,4.31
2022-12-08T22:06:08.832Z,4.26
2022-12-08T22:09:13.478Z,4.19
2022-12-08T22:12:17.233Z,4.14
2022-12-08T22:15:19.897Z,4.16
2022-12-08T22:18:22.608Z,4.15
2022-12-08T22:21:25.616Z,4.13
2022-12-08T22:24:31.816Z,4.11
2022-12-08T22:27:34.676Z,4.13
2022-12-08T22:30:39.319Z,4.10
2022-12-08T22:33:43.625Z,4.13
2022-12-08T22:36:46.469Z,4.10
2022-12-08T22:39:49.516Z,4.08
2022-12-08T22:42:52.405Z,4.10
2022-12-08T22:45:55.149Z,4.12
2022-12-08T22:48:58.005Z,4.10
2022-12-08T22:52:01.037Z,4.13
2022-12-08T22:55:04.129Z,4.17
2022-12-08T22:58:07.094Z,4.16
2022-12-08T23:01:23.622Z,4.18
2022-12-08T23:04:26.639Z,4.17
2022-12-08T23:07:29.590Z,4.17
2022-12-08T23:10:33.347Z,4.17
2022-12-08T23:13:37.162Z,4.18
2022-12-08T23:16:40.456Z,4.16
2022-12-08T23:19:43.483Z,4.15
2022-12-08T23:22:46.340Z,4.08
2022-12-08T23:25:49.329Z,4.12
2022-12-08T23:28:52.756Z,4.10
2022-12-08T23:31:55.983Z,4.05
2022-12-08T23:34:59.016Z,4.04
2022-12-08T23:38:01.834Z,4.04
2022-12-08T23:41:06.652Z,4.08
2022-12-08T23:44:11.954Z,4.03
2022-12-08T23:47:14.727Z,4.03
2022-12-08T23:50:17.657Z,4.02
2022-12-08T23:53:20.440Z,4.03
2022-12-08T23:56:28.327Z,4.01
2022-12-08T23:59:33.338Z,4.02
